createdAt,value
2022-08-30T00:01:31.234Z,19.30
2022-08-30T00:04:03.699Z,19.20
2022-08-30T00:06:35.509Z,19.20
2022-08-30T00:09:06.847Z,19.10
2022-08-30T00:11:38.241Z,19.10
2022-08-30T00:14:09.672Z,19.00
2022-08-30T00:16:41.374Z,19.00
2022-08-30T00:19:12.737Z,18.90
2022-08-30T00:21:44.217Z,18.80
2022-08-30T00:24:15.700Z,18.80
2022-08-30T00:26:47.142Z,18.80
2022-08-30T00:29:18.693Z,18.80
2022-08-30T00:31:50.605Z,18.80
2022-08-30T00:34:22.218Z,18.80
2022-08-30T00:36:53.620Z,18.80
2022-08-30T00:39:25.084Z,18.90
2022-08-30T00:41:56.465Z,18.80
2022-08-30T00:44:27.986Z,18.80
2022-08-30T00:46:59.467Z,18.80
2022-08-30T00:49:31.555Z,18.80
2022-08-30T00:52:04.084Z,18.80
2022-08-30T00:54:38.460Z,18.70
2022-08-30T00:57:11.009Z,18.70
2022-08-30T00:59:44.092Z,18.70
2022-08-30T01:02:16.936Z,18.70
2022-08-30T01:04:49.269Z,18.60
2022-08-30T01:07:20.777Z,18.60
2022-08-30T01:09:52.310Z,18.60
2022-08-30T01:12:23.983Z,18.50
2022-08-30T01:14:55.311Z,18.50
2022-08-30T01:17:28.192Z,18.40
2022-08-30T01:20:02.895Z,18.40
2022-08-30T01:22:38.603Z,18.30
2022-08-30T01:25:12.773Z,18.20
2022-08-30T01:27:47.577Z,18.30
2022-08-30T01:30:19.556Z,18.20
2022-08-30T01:32:51.637Z,18.20
2022-08-30T01:35:23.138Z,18.10
2022-08-30T01:37:54.805Z,18.10
2022-08-30T01:40:26.556Z,18.10
2022-08-30T01:42:57.860Z,18.00
2022-08-30T01:45:29.253Z,17.90
2022-08-30T01:48:02.753Z,17.90
2022-08-30T01:50:33.723Z,17.80
2022-08-30T01:53:05.663Z,17.70
2022-08-30T01:55:38.717Z,17.70
2022-08-30T01:58:10.167Z,17.70
2022-08-30T02:00:41.900Z,17.60
2022-08-30T02:03:13.782Z,17.60
2022-08-30T02:05:45.221Z,17.50
2022-08-30T02:08:16.664Z,17.50
2022-08-30T02:10:48.097Z,17.50
2022-08-30T02:13:19.633Z,17.40
2022-08-30T02:15:50.985Z,17.40
2022-08-30T02:18:22.649Z,17.30
2022-08-30T02:20:54.353Z,17.40
2022-08-30T02:23:25.952Z,17.30
2022-08-30T02:25:58.029Z,17.30
2022-08-30T02:28:29.707Z,17.30
2022-08-30T02:31:01.807Z,17.20
2022-08-30T02:33:33.260Z,17.20
2022-08-30T02:36:05.444Z,17.20
2022-08-30T02:38:37.228Z,17.20
2022-08-30T02:41:08.824Z,17.20
2022-08-30T02:43:40.202Z,17.20
2022-08-30T02:46:12.713Z,17.10
2022-08-30T02:48:44.477Z,17.20
2022-08-30T02:51:16.465Z,17.20
2022-08-30T02:53:49.079Z,17.20
2022-08-30T02:56:20.561Z,17.20
2022-08-30T02:58:51.927Z,17.10
2022-08-30T03:01:26.372Z,17.10
2022-08-30T03:03:56.449Z,17.10
2022-08-30T03:06:27.897Z,17.00
2022-08-30T03:08:59.822Z,17.00
2022-08-30T03:11:31.736Z,17.00
2022-08-30T03:14:03.190Z,17.00
2022-08-30T03:16:34.639Z,17.00
2022-08-30T03:19:06.237Z,17.00
2022-08-30T03:21:38.788Z,17.00
2022-08-30T03:24:10.316Z,17.00
2022-08-30T03:26:46.017Z,16.90
2022-08-30T03:29:14.824Z,16.90
2022-08-30T03:31:53.285Z,16.90
2022-08-30T03:34:19.428Z,16.90
2022-08-30T03:36:50.980Z,16.80
2022-08-30T03:39:23.746Z,16.70
2022-08-30T03:41:55.749Z,16.70
2022-08-30T03:44:27.235Z,16.60
2022-08-30T03:46:59.086Z,16.50
2022-08-30T03:49:31.392Z,16.50
2022-08-30T03:52:02.979Z,16.50
2022-08-30T03:54:34.458Z,16.60
2022-08-30T03:57:06.420Z,16.60
2022-08-30T03:59:37.843Z,16.60
2022-08-30T04:02:09.377Z,16.60
2022-08-30T04:04:40.988Z,16.70
2022-08-30T04:07:12.803Z,16.60
2022-08-30T04:09:44.326Z,16.60
2022-08-30T04:12:20.483Z,16.50
2022-08-30T04:14:48.855Z,16.40
2022-08-30T04:17:20.347Z,16.40
2022-08-30T04:19:52.042Z,16.40
2022-08-30T04:22:23.457Z,16.40
2022-08-30T04:24:55.061Z,16.60
2022-08-30T04:27:26.461Z,16.70
2022-08-30T04:29:57.851Z,16.80
2022-08-30T04:32:29.456Z,16.80
2022-08-30T04:35:01.266Z,16.80
2022-08-30T04:37:32.752Z,16.80
2022-08-30T04:40:05.113Z,16.80
2022-08-30T04:42:38.203Z,16.80
2022-08-30T04:45:14.729Z,16.80
2022-08-30T04:47:46.125Z,16.90
2022-08-30T04:50:19.567Z,16.90
2022-08-30T04:52:50.942Z,17.00
2022-08-30T04:55:24.097Z,17.10
2022-08-30T04:57:56.527Z,17.10
2022-08-30T05:00:28.109Z,17.10
2022-08-30T05:02:59.727Z,17.10
2022-08-30T05:05:40.801Z,17.10
2022-08-30T05:08:13.890Z,17.20
2022-08-30T05:10:47.582Z,17.10
2022-08-30T05:13:21.265Z,17.20
2022-08-30T05:15:54.382Z,17.20
2022-08-30T05:18:25.820Z,17.20
2022-08-30T05:21:07.489Z,17.30
2022-08-30T05:23:39.800Z,17.30
2022-08-30T05:26:14.097Z,17.40
2022-08-30T05:28:46.500Z,17.50
2022-08-30T05:31:22.817Z,17.60
2022-08-30T05:33:55.369Z,17.70
2022-08-30T05:36:28.356Z,17.80
2022-08-30T05:39:01.299Z,17.90
2022-08-30T05:41:32.865Z,18.00
2022-08-30T05:44:06.629Z,18.10
2022-08-30T05:46:39.628Z,18.30
2022-08-30T05:49:11.381Z,18.60
2022-08-30T05:51:43.684Z,18.80
2022-08-30T05:54:16.851Z,19.30
2022-08-30T05:56:59.945Z,20.60
2022-08-30T05:59:31.592Z,22.20
2022-08-30T06:02:03.188Z,23.30
2022-08-30T06:04:36.269Z,24.30
2022-08-30T06:07:10.495Z,25.00
2022-08-30T06:09:40.758Z,24.70
2022-08-30T06:12:12.777Z,24.30
2022-08-30T06:14:44.254Z,23.70
2022-08-30T06:17:15.696Z,24.30
2022-08-30T06:19:47.068Z,24.40
2022-08-30T06:22:18.487Z,24.00
2022-08-30T06:24:58.035Z,24.10
2022-08-30T06:27:22.763Z,24.90
2022-08-30T06:29:54.369Z,25.10
2022-08-30T06:32:25.952Z,25.50
2022-08-30T06:34:57.520Z,26.50
2022-08-30T06:37:30.006Z,26.50
2022-08-30T06:40:04.036Z,26.70
2022-08-30T06:42:35.610Z,26.90
2022-08-30T06:45:10.759Z,26.50
2022-08-30T06:47:42.241Z,26.00
2022-08-30T06:50:17.619Z,25.40
2022-08-30T06:52:49.753Z,25.20
2022-08-30T06:55:21.538Z,25.80
2022-08-30T06:57:52.841Z,25.70
2022-08-30T07:00:24.468Z,25.40
2022-08-30T07:02:56.624Z,25.80
2022-08-30T07:05:28.073Z,26.40
2022-08-30T07:07:59.504Z,26.30
2022-08-30T07:10:31.314Z,25.80
2022-08-30T07:13:02.752Z,25.20
2022-08-30T07:15:34.204Z,24.70
2022-08-30T07:18:25.415Z,24.00
2022-08-30T07:20:57.442Z,23.40
2022-08-30T07:23:29.045Z,23.10
2022-08-30T07:26:01.925Z,23.30
2022-08-30T07:28:33.994Z,23.10
2022-08-30T07:31:06.077Z,23.10
2022-08-30T07:33:37.733Z,23.10
2022-08-30T07:36:11.062Z,23.30
2022-08-30T07:38:42.864Z,23.30
2022-08-30T07:41:20.759Z,23.40
2022-08-30T07:43:52.915Z,23.40
2022-08-30T07:46:25.660Z,23.30
2022-08-30T07:48:57.210Z,23.20
2022-08-30T07:51:30.210Z,23.00
2022-08-30T07:54:02.377Z,23.00
2022-08-30T07:56:33.758Z,23.00
2022-08-30T07:59:04.946Z,23.00
2022-08-30T08:01:36.566Z,23.00
2022-08-30T08:04:07.892Z,23.00
2022-08-30T08:06:40.778Z,23.10
2022-08-30T08:09:12.170Z,23.20
2022-08-30T08:11:43.673Z,23.30
2022-08-30T08:16:48.437Z,23.40
2022-08-30T08:19:19.879Z,23.50
2022-08-30T08:22:15.330Z,23.60
2022-08-30T08:24:26.002Z,23.60
2022-08-30T08:26:57.489Z,23.80
2022-08-30T08:29:28.571Z,23.80
2022-08-30T08:32:00.785Z,23.90
2022-08-30T08:34:32.202Z,23.80
2022-08-30T08:37:03.845Z,23.90
2022-08-30T08:39:35.167Z,24.10
2022-08-30T08:42:10.824Z,24.20
2022-08-30T08:44:51.075Z,24.40
2022-08-30T08:47:28.030Z,24.40
2022-08-30T08:50:03.521Z,24.70
2022-08-30T08:52:55.945Z,25.00
2022-08-30T08:55:28.021Z,25.10
2022-08-30T08:57:59.960Z,25.20
2022-08-30T09:00:32.545Z,25.20
2022-08-30T09:03:05.699Z,25.10
2022-08-30T09:05:41.810Z,25.10
2022-08-30T09:08:16.777Z,25.00
2022-08-30T09:10:52.147Z,24.70
2022-08-30T09:13:25.040Z,24.80
2022-08-30T09:15:59.427Z,24.90
2022-08-30T09:18:54.592Z,25.10
2022-08-30T09:21:26.360Z,25.10
2022-08-30T09:24:00.701Z,25.10
2022-08-30T09:26:39.160Z,25.20
2022-08-30T09:29:16.481Z,25.20
2022-08-30T09:32:10.104Z,25.20
2022-08-30T09:34:26.761Z,25.30
2022-08-30T09:36:58.414Z,25.40
2022-08-30T09:39:32.145Z,25.50
2022-08-30T09:42:15.927Z,25.50
2022-08-30T09:44:47.485Z,25.60
2022-08-30T09:47:31.582Z,25.70
2022-08-30T09:50:07.786Z,25.70
2022-08-30T09:52:53.227Z,25.80
2022-08-30T09:55:30.302Z,25.70
2022-08-30T09:58:07.334Z,25.60
2022-08-30T10:00:42.794Z,25.70
2022-08-30T10:03:35.724Z,25.70
2022-08-30T10:06:02.022Z,25.70
2022-08-30T10:08:42.331Z,25.90
2022-08-30T10:11:19.735Z,26.00
2022-08-30T10:14:05.638Z,26.20
2022-08-30T10:16:48.021Z,26.30
2022-08-30T10:19:32.988Z,26.20
2022-08-30T10:22:07.515Z,26.20
2022-08-30T10:24:41.984Z,26.10
2022-08-30T10:27:18.968Z,26.00
2022-08-30T10:29:53.334Z,26.00
2022-08-30T10:32:28.929Z,26.10
2022-08-30T10:35:03.638Z,26.20
2022-08-30T10:37:38.094Z,26.30
2022-08-30T10:40:32.016Z,26.30
2022-08-30T10:43:06.781Z,26.20
2022-08-30T10:45:41.783Z,26.40
2022-08-30T10:48:17.442Z,26.50
2022-08-30T10:50:54.129Z,26.50
2022-08-30T10:53:31.574Z,26.80
2022-08-30T10:56:07.030Z,27.10
2022-08-30T10:58:40.720Z,27.50
2022-08-30T11:01:35.110Z,27.70
2022-08-30T11:04:23.860Z,27.80
2022-08-30T11:07:00.477Z,27.80
2022-08-30T11:09:39.511Z,27.90
2022-08-30T11:12:29.188Z,27.80
2022-08-30T11:15:02.170Z,27.70
2022-08-30T11:17:36.541Z,27.50
2022-08-30T11:20:13.527Z,27.50
2022-08-30T11:22:47.946Z,27.40
2022-08-30T11:25:30.852Z,27.40
2022-08-30T11:28:02.629Z,27.30
2022-08-30T11:30:53.028Z,27.30
2022-08-30T11:33:38.966Z,27.30
2022-08-30T11:36:11.049Z,27.40
2022-08-30T11:39:05.477Z,27.60
2022-08-30T11:41:42.484Z,27.70
2022-08-30T11:44:28.457Z,28.00
2022-08-30T11:47:01.621Z,28.30
2022-08-30T11:49:55.285Z,28.50
2022-08-30T11:52:53.677Z,28.10
2022-08-30T11:55:47.488Z,28.00
2022-08-30T11:58:27.949Z,28.20
2022-08-30T12:01:50.069Z,28.70
2022-08-30T12:04:01.474Z,28.90
2022-08-30T12:06:52.722Z,28.80
2022-08-30T12:10:06.539Z,28.90
2022-08-30T12:12:57.524Z,28.90
2022-08-30T12:15:56.529Z,29.00
2022-08-30T12:18:40.740Z,28.90
2022-08-30T12:21:29.423Z,28.80
2022-08-30T12:24:07.565Z,28.90
2022-08-30T12:26:41.389Z,29.00
2022-08-30T12:29:17.579Z,29.10
2022-08-30T12:31:52.693Z,29.00
2022-08-30T12:34:27.323Z,29.00
2022-08-30T12:37:03.046Z,28.90
2022-08-30T12:39:39.561Z,28.90
2022-08-30T12:42:18.785Z,28.70
2022-08-30T12:44:52.639Z,28.50
2022-08-30T12:47:27.301Z,28.60
2022-08-30T12:49:59.478Z,28.60
2022-08-30T12:52:34.677Z,28.50
2022-08-30T12:55:17.331Z,28.30
2022-08-30T12:58:00.497Z,28.30
2022-08-30T13:00:32.301Z,28.20
2022-08-30T13:03:15.548Z,28.10
2022-08-30T13:05:50.083Z,28.00
2022-08-30T13:08:25.993Z,28.00
2022-08-30T13:11:04.480Z,28.00
2022-08-30T13:13:40.901Z,28.10
2022-08-30T13:16:24.834Z,28.20
2022-08-30T13:18:59.791Z,28.30
2022-08-30T13:21:35.520Z,28.30
2022-08-30T13:24:07.749Z,28.30
2022-08-30T13:26:42.416Z,28.20
2022-08-30T13:29:19.485Z,28.30
2022-08-30T13:31:50.968Z,28.30
2022-08-30T13:34:22.983Z,28.30
2022-08-30T13:36:57.568Z,28.40
2022-08-30T13:39:29.333Z,28.40
2022-08-30T13:44:34.082Z,28.50
2022-08-30T13:49:44.955Z,28.70
2022-08-30T13:52:21.043Z,28.70
2022-08-30T13:54:50.464Z,28.70
2022-08-30T13:59:58.051Z,28.90
2022-08-30T14:02:29.447Z,29.00
2022-08-30T14:05:03.201Z,29.00
2022-08-30T14:07:34.193Z,28.70
2022-08-30T14:13:02.788Z,28.60
2022-08-30T14:15:14.938Z,28.60
2022-08-30T14:17:48.305Z,28.80
2022-08-30T14:20:19.954Z,28.80
2022-08-30T14:22:51.557Z,28.90
2022-08-30T14:25:23.345Z,29.00
2022-08-30T14:27:54.924Z,28.90
2022-08-30T14:30:27.921Z,28.80
2022-08-30T14:32:59.651Z,28.80
2022-08-30T14:35:31.590Z,29.00
2022-08-30T14:38:03.176Z,29.00
2022-08-30T14:40:34.611Z,29.20
2022-08-30T14:43:09.768Z,29.30
2022-08-30T14:45:41.456Z,29.50
2022-08-30T14:48:17.275Z,29.60
2022-08-30T14:50:46.994Z,29.50
2022-08-30T14:53:18.466Z,29.60
2022-08-30T14:55:50.117Z,29.60
2022-08-30T14:58:21.509Z,29.70
2022-08-30T15:00:53.979Z,29.60
2022-08-30T15:03:25.355Z,29.60
2022-08-30T15:05:56.809Z,29.70
2022-08-30T15:08:28.256Z,29.70
2022-08-30T15:11:01.095Z,29.70
2022-08-30T15:13:32.447Z,29.60
2022-08-30T15:16:04.846Z,29.60
2022-08-30T15:18:36.208Z,29.50
2022-08-30T15:21:08.062Z,29.40
2022-08-30T15:23:40.104Z,29.30
2022-08-30T15:26:11.388Z,29.10
2022-08-30T15:28:43.851Z,29.00
2022-08-30T15:31:15.886Z,28.90
2022-08-30T15:33:47.334Z,28.80
2022-08-30T15:36:18.932Z,28.70
2022-08-30T15:38:50.740Z,28.70
2022-08-30T15:41:22.758Z,28.60
2022-08-30T15:43:55.052Z,28.40
2022-08-30T15:46:30.076Z,28.30
2022-08-30T15:49:04.405Z,28.10
2022-08-30T15:51:41.910Z,27.90
2022-08-30T15:54:10.177Z,27.90
2022-08-30T15:56:43.466Z,27.80
2022-08-30T15:59:17.487Z,27.70
2022-08-30T16:01:50.324Z,27.50
2022-08-30T16:04:22.793Z,27.40
2022-08-30T16:06:54.971Z,27.40
2022-08-30T16:09:29.965Z,27.40
2022-08-30T16:12:01.142Z,27.40
2022-08-30T16:14:32.986Z,27.40
2022-08-30T16:17:05.094Z,27.40
2022-08-30T16:19:36.514Z,27.30
2022-08-30T16:22:08.538Z,27.30
2022-08-30T16:24:39.949Z,27.30
2022-08-30T16:27:12.844Z,27.20
2022-08-30T16:29:44.388Z,27.20
2022-08-30T16:32:16.000Z,27.10
2022-08-30T16:34:47.552Z,27.00
2022-08-30T16:37:19.082Z,26.90
2022-08-30T16:39:50.529Z,26.80
2022-08-30T16:42:22.931Z,26.80
2022-08-30T16:44:55.952Z,26.70
2022-08-30T16:47:27.582Z,26.50
2022-08-30T16:50:00.808Z,26.20
2022-08-30T16:52:32.117Z,26.00
2022-08-30T16:55:03.816Z,25.90
2022-08-30T16:57:35.231Z,25.80
2022-08-30T17:00:13.351Z,25.60
2022-08-30T17:02:53.632Z,25.50
2022-08-30T17:05:15.790Z,25.40
2022-08-30T17:07:47.241Z,25.40
2022-08-30T17:10:23.308Z,25.30
2022-08-30T17:12:53.631Z,25.20
2022-08-30T17:15:26.660Z,25.20
2022-08-30T17:17:59.803Z,25.30
2022-08-30T17:20:31.934Z,25.30
2022-08-30T17:23:05.080Z,25.20
2022-08-30T17:25:36.769Z,25.20
2022-08-30T17:28:08.574Z,25.20
2022-08-30T17:30:39.923Z,25.20
2022-08-30T17:33:12.011Z,25.30
2022-08-30T17:35:44.261Z,25.20
2022-08-30T17:38:15.723Z,25.20
2022-08-30T17:40:47.577Z,25.20
2022-08-30T17:43:18.936Z,25.10
2022-08-30T17:45:50.375Z,25.00
2022-08-30T17:48:21.805Z,25.00
2022-08-30T17:50:57.509Z,24.90
2022-08-30T17:53:29.872Z,24.80
2022-08-30T17:56:01.551Z,24.80
2022-08-30T17:58:34.426Z,24.80
2022-08-30T18:01:12.158Z,24.80
2022-08-30T18:03:45.347Z,24.60
2022-08-30T18:06:17.120Z,24.40
2022-08-30T18:08:48.589Z,24.20
2022-08-30T18:11:21.653Z,24.10
2022-08-30T18:13:52.988Z,23.90
2022-08-30T18:16:26.483Z,23.70
2022-08-30T18:18:57.725Z,23.50
2022-08-30T18:21:29.012Z,23.30
2022-08-30T18:24:17.800Z,23.10
2022-08-30T18:27:07.214Z,23.00
2022-08-30T18:29:40.401Z,22.70
2022-08-30T18:32:11.844Z,22.40
2022-08-30T18:34:43.406Z,22.00
2022-08-30T18:37:16.606Z,21.70
2022-08-30T18:39:48.431Z,21.50
2022-08-30T18:42:21.576Z,21.30
2022-08-30T18:44:53.086Z,21.00
2022-08-30T18:47:24.809Z,20.70
2022-08-30T18:49:56.298Z,20.40
2022-08-30T18:52:28.269Z,20.20
2022-08-30T18:54:59.704Z,19.90
2022-08-30T18:57:31.669Z,19.70
2022-08-30T19:00:04.398Z,19.40
2022-08-30T19:02:36.335Z,19.10
2022-08-30T19:05:09.225Z,18.80
2022-08-30T19:07:40.891Z,18.70
2022-08-30T19:10:14.129Z,18.50
2022-08-30T19:12:45.500Z,18.30
2022-08-30T19:15:17.660Z,18.20
2022-08-30T19:17:49.624Z,18.10
2022-08-30T19:20:24.679Z,18.00
2022-08-30T19:23:09.603Z,18.00
2022-08-30T19:25:29.290Z,17.90
2022-08-30T19:28:00.800Z,17.80
2022-08-30T19:30:32.398Z,17.80
2022-08-30T19:33:03.953Z,17.70
2022-08-30T19:35:37.276Z,17.70
2022-08-30T19:38:08.695Z,17.70
2022-08-30T19:40:40.209Z,17.60
2022-08-30T19:43:11.606Z,17.70
2022-08-30T19:45:43.385Z,17.70
2022-08-30T19:48:15.369Z,17.70
2022-08-30T19:50:47.179Z,17.70
2022-08-30T19:53:20.230Z,17.70
2022-08-30T19:55:52.558Z,17.70
2022-08-30T19:58:24.150Z,17.70
2022-08-30T20:01:00.977Z,17.70
2022-08-30T20:03:28.287Z,17.70
2022-08-30T20:05:59.658Z,17.80
2022-08-30T20:08:32.550Z,17.80
2022-08-30T20:11:04.402Z,17.80
2022-08-30T20:13:36.113Z,17.80
2022-08-30T20:16:08.291Z,17.80
2022-08-30T20:18:42.691Z,17.90
2022-08-30T20:21:14.715Z,17.90
2022-08-30T20:23:46.159Z,17.80
2022-08-30T20:26:17.527Z,17.90
2022-08-30T20:28:49.332Z,17.90
2022-08-30T20:31:21.157Z,17.90
2022-08-30T20:33:52.483Z,17.90
2022-08-30T20:36:23.920Z,17.80
2022-08-30T20:38:55.531Z,17.80
2022-08-30T20:41:28.692Z,17.80
2022-08-30T20:44:01.856Z,17.90
2022-08-30T20:46:34.408Z,17.80
2022-08-30T20:49:06.008Z,17.80
2022-08-30T20:51:37.425Z,17.80
2022-08-30T20:54:10.808Z,17.90
2022-08-30T20:56:42.300Z,17.80
2022-08-30T20:59:13.696Z,17.80
2022-08-30T21:01:45.949Z,17.80
2022-08-30T21:04:17.370Z,17.80
2022-08-30T21:06:48.748Z,17.80
2022-08-30T21:09:21.661Z,17.70
2022-08-30T21:11:53.606Z,17.70
2022-08-30T21:14:25.007Z,17.80
2022-08-30T21:16:56.863Z,17.80
2022-08-30T21:19:28.253Z,17.70
2022-08-30T21:22:00.121Z,17.70
2022-08-30T21:24:32.065Z,17.70
2022-08-30T21:27:04.050Z,17.60
2022-08-30T21:29:38.122Z,17.60
2022-08-30T21:32:09.698Z,17.60
2022-08-30T21:35:00.264Z,17.60
2022-08-30T21:37:35.533Z,17.60
2022-08-30T21:40:06.053Z,17.70
2022-08-30T21:42:39.971Z,17.70
2022-08-30T21:45:12.676Z,17.60
2022-08-30T21:47:44.518Z,17.60
2022-08-30T21:50:15.568Z,17.60
2022-08-30T21:52:47.010Z,17.60
2022-08-30T21:55:19.022Z,17.60
2022-08-30T21:57:50.515Z,17.60
2022-08-30T22:00:22.039Z,17.60
2022-08-30T22:02:53.552Z,17.60
2022-08-30T22:05:25.716Z,17.60
2022-08-30T22:07:57.238Z,17.60
2022-08-30T22:10:32.845Z,17.60
2022-08-30T22:13:02.391Z,17.60
2022-08-30T22:15:39.015Z,17.60
2022-08-30T22:18:10.914Z,17.50
2022-08-30T22:20:43.818Z,17.50
2022-08-30T22:23:18.938Z,17.40
2022-08-30T22:25:50.550Z,17.40
2022-08-30T22:28:22.398Z,17.40
2022-08-30T22:30:54.280Z,17.40
2022-08-30T22:33:25.933Z,17.40
2022-08-30T22:35:57.352Z,17.50
2022-08-30T22:38:28.951Z,17.50
2022-08-30T22:41:00.041Z,17.50
2022-08-30T22:43:31.402Z,17.50
2022-08-30T22:46:03.043Z,17.50
2022-08-30T22:48:34.644Z,17.40
2022-08-30T22:51:06.337Z,17.30
2022-08-30T22:53:38.218Z,17.20
2022-08-30T22:56:14.528Z,17.20
2022-08-30T22:58:46.033Z,17.20
2022-08-30T23:01:23.784Z,17.20
2022-08-30T23:03:56.049Z,17.20
2022-08-30T23:06:28.039Z,17.20
2022-08-30T23:09:00.479Z,17.10
2022-08-30T23:11:33.521Z,17.00
2022-08-30T23:14:06.577Z,17.00
2022-08-30T23:16:38.267Z,17.00
2022-08-30T23:19:09.801Z,17.00
2022-08-30T23:21:41.840Z,17.00
2022-08-30T23:24:30.833Z,17.00
2022-08-30T23:27:19.616Z,17.00
2022-08-30T23:30:08.429Z,17.00
2022-08-30T23:33:00.025Z,17.00
2022-08-30T23:35:47.720Z,17.10
2022-08-30T23:38:36.898Z,17.20
2022-08-30T23:41:27.142Z,17.20
2022-08-30T23:44:17.222Z,17.20
2022-08-30T23:47:06.342Z,17.20
2022-08-30T23:49:55.335Z,17.20
2022-08-30T23:52:44.677Z,17.20
2022-08-30T23:55:33.648Z,17.30
2022-08-30T23:58:22.796Z,17.30
